sensor_id;sensor_type;location;lat;lon;timestamp;temperature;humidity
67901;DHT22;54700;51.796;10.956;2023-09-19T00:00:58;17.70;83.20
67901;DHT22;54700;51.796;10.956;2023-09-19T00:03:26;17.70;83.80
67901;DHT22;54700;51.796;10.956;2023-09-19T00:05:57;17.60;84.20
67901;DHT22;54700;51.796;10.956;2023-09-19T00:08:25;17.60;84.60
67901;DHT22;54700;51.796;10.956;2023-09-19T00:10:53;17.50;85.00
67901;DHT22;54700;51.796;10.956;2023-09-19T00:13:25;17.50;85.30
67901;DHT22;54700;51.796;10.956;2023-09-19T00:15:51;17.50;85.30
67901;DHT22;54700;51.796;10.956;2023-09-19T00:18:21;17.50;85.40
67901;DHT22;54700;51.796;10.956;2023-09-19T00:20:49;17.50;85.30
67901;DHT22;54700;51.796;10.956;2023-09-19T00:23:18;17.50;85.60
67901;DHT22;54700;51.796;10.956;2023-09-19T00:25:45;17.50;85.80
67901;DHT22;54700;51.796;10.956;2023-09-19T00:28:12;17.40;86.10
67901;DHT22;54700;51.796;10.956;2023-09-19T00:30:42;17.40;86.10
67901;DHT22;54700;51.796;10.956;2023-09-19T00:33:09;17.30;86.40
67901;DHT22;54700;51.796;10.956;2023-09-19T00:35:37;17.30;86.50
67901;DHT22;54700;51.796;10.956;2023-09-19T00:38:03;17.30;86.70
67901;DHT22;54700;51.796;10.956;2023-09-19T00:40:33;17.30;87.00
67901;DHT22;54700;51.796;10.956;2023-09-19T00:43:00;17.20;87.20
67901;DHT22;54700;51.796;10.956;2023-09-19T00:45:27;17.20;87.40
67901;DHT22;54700;51.796;10.956;2023-09-19T00:47:55;17.20;87.30
67901;DHT22;54700;51.796;10.956;2023-09-19T00:50:23;17.20;87.30
67901;DHT22;54700;51.796;10.956;2023-09-19T00:52:54;17.20;87.40
67901;DHT22;54700;51.796;10.956;2023-09-19T00:55:22;17.10;87.40
67901;DHT22;54700;51.796;10.956;2023-09-19T00:57:52;17.10;87.70
67901;DHT22;54700;51.796;10.956;2023-09-19T01:00:19;17.10;87.70
67901;DHT22;54700;51.796;10.956;2023-09-19T01:02:49;17.10;87.70
67901;DHT22;54700;51.796;10.956;2023-09-19T01:05:15;17.10;87.50
67901;DHT22;54700;51.796;10.956;2023-09-19T01:07:43;17.10;87.70
67901;DHT22;54700;51.796;10.956;2023-09-19T01:10:11;17.10;87.90
67901;DHT22;54700;51.796;10.956;2023-09-19T01:12:45;17.10;87.90
67901;DHT22;54700;51.796;10.956;2023-09-19T01:15:24;17.10;87.90
67901;DHT22;54700;51.796;10.956;2023-09-19T01:18:00;17.10;88.10
67901;DHT22;54700;51.796;10.956;2023-09-19T01:20:37;17.10;88.30
67901;DHT22;54700;51.796;10.956;2023-09-19T01:23:11;17.10;88.40
67901;DHT22;54700;51.796;10.956;2023-09-19T01:25:50;17.10;88.60
67901;DHT22;54700;51.796;10.956;2023-09-19T01:28:34;17.00;89.10
67901;DHT22;54700;51.796;10.956;2023-09-19T01:31:14;17.00;89.20
67901;DHT22;54700;51.796;10.956;2023-09-19T01:33:54;17.00;89.50
67901;DHT22;54700;51.796;10.956;2023-09-19T01:36:28;17.00;89.90
67901;DHT22;54700;51.796;10.956;2023-09-19T01:38:59;16.90;90.00
67901;DHT22;54700;51.796;10.956;2023-09-19T01:41:35;16.90;90.00
67901;DHT22;54700;51.796;10.956;2023-09-19T01:44:21;16.90;90.00
67901;DHT22;54700;51.796;10.956;2023-09-19T01:46:53;16.90;89.60
67901;DHT22;54700;51.796;10.956;2023-09-19T01:49:27;16.90;89.40
67901;DHT22;54700;51.796;10.956;2023-09-19T01:52:05;16.90;88.60
67901;DHT22;54700;51.796;10.956;2023-09-19T01:54:40;16.80;88.60
67901;DHT22;54700;51.796;10.956;2023-09-19T01:57:14;16.90;88.40
67901;DHT22;54700;51.796;10.956;2023-09-19T01:59:54;16.90;88.70
67901;DHT22;54700;51.796;10.956;2023-09-19T02:02:36;16.90;88.70
67901;DHT22;54700;51.796;10.956;2023-09-19T02:05:04;16.80;88.70
67901;DHT22;54700;51.796;10.956;2023-09-19T02:07:32;16.80;88.40
67901;DHT22;54700;51.796;10.956;2023-09-19T02:10:03;16.80;88.20
67901;DHT22;54700;51.796;10.956;2023-09-19T02:12:32;16.80;88.40
67901;DHT22;54700;51.796;10.956;2023-09-19T02:15:07;16.70;88.40
67901;DHT22;54700;51.796;10.956;2023-09-19T02:17:36;16.70;87.90
67901;DHT22;54700;51.796;10.956;2023-09-19T02:20:04;16.70;87.70
67901;DHT22;54700;51.796;10.956;2023-09-19T02:22:39;16.60;87.90
67901;DHT22;54700;51.796;10.956;2023-09-19T02:25:06;16.60;87.40
67901;DHT22;54700;51.796;10.956;2023-09-19T02:27:33;16.60;87.40
67901;DHT22;54700;51.796;10.956;2023-09-19T02:30:01;16.60;87.30
67901;DHT22;54700;51.796;10.956;2023-09-19T02:32:29;16.50;87.10
67901;DHT22;54700;51.796;10.956;2023-09-19T02:34:58;16.50;87.30
67901;DHT22;54700;51.796;10.956;2023-09-19T02:37:25;16.50;87.60
67901;DHT22;54700;51.796;10.956;2023-09-19T02:39:52;16.50;87.40
67901;DHT22;54700;51.796;10.956;2023-09-19T02:42:19;16.50;87.70
67901;DHT22;54700;51.796;10.956;2023-09-19T02:44:46;16.40;87.60
67901;DHT22;54700;51.796;10.956;2023-09-19T02:47:14;16.40;87.70
67901;DHT22;54700;51.796;10.956;2023-09-19T02:49:42;16.40;87.70
67901;DHT22;54700;51.796;10.956;2023-09-19T02:52:14;16.40;87.50
67901;DHT22;54700;51.796;10.956;2023-09-19T02:54:41;16.40;87.10
67901;DHT22;54700;51.796;10.956;2023-09-19T02:57:11;16.40;86.60
67901;DHT22;54700;51.796;10.956;2023-09-19T02:59:39;16.40;86.20
67901;DHT22;54700;51.796;10.956;2023-09-19T03:02:07;16.40;86.30
67901;DHT22;54700;51.796;10.956;2023-09-19T03:04:34;16.40;86.30
67901;DHT22;54700;51.796;10.956;2023-09-19T03:07:02;16.40;85.70
67901;DHT22;54700;51.796;10.956;2023-09-19T03:09:31;16.30;85.10
67901;DHT22;54700;51.796;10.956;2023-09-19T03:11:58;16.30;85.30
67901;DHT22;54700;51.796;10.956;2023-09-19T03:14:26;16.30;85.10
67901;DHT22;54700;51.796;10.956;2023-09-19T03:16:55;16.30;85.20
67901;DHT22;54700;51.796;10.956;2023-09-19T03:19:22;16.30;84.90
67901;DHT22;54700;51.796;10.956;2023-09-19T03:21:51;16.20;85.00
67901;DHT22;54700;51.796;10.956;2023-09-19T03:24:18;16.20;85.10
67901;DHT22;54700;51.796;10.956;2023-09-19T03:26:47;16.20;85.30
67901;DHT22;54700;51.796;10.956;2023-09-19T03:29:14;16.10;85.50
67901;DHT22;54700;51.796;10.956;2023-09-19T03:31:42;16.10;86.00
67901;DHT22;54700;51.796;10.956;2023-09-19T03:34:09;16.10;86.20
67901;DHT22;54700;51.796;10.956;2023-09-19T03:36:36;16.10;85.50
67901;DHT22;54700;51.796;10.956;2023-09-19T03:39:05;16.10;85.90
67901;DHT22;54700;51.796;10.956;2023-09-19T03:41:33;16.00;85.00
67901;DHT22;54700;51.796;10.956;2023-09-19T03:44:04;16.00;82.80
67901;DHT22;54700;51.796;10.956;2023-09-19T03:46:32;16.00;81.60
67901;DHT22;54700;51.796;10.956;2023-09-19T03:49:00;16.00;81.80
67901;DHT22;54700;51.796;10.956;2023-09-19T03:51:28;16.00;81.90
67901;DHT22;54700;51.796;10.956;2023-09-19T03:53:55;15.90;82.00
67901;DHT22;54700;51.796;10.956;2023-09-19T03:56:23;15.90;82.30
67901;DHT22;54700;51.796;10.956;2023-09-19T03:58:50;15.90;82.60
67901;DHT22;54700;51.796;10.956;2023-09-19T04:01:22;15.80;82.90
67901;DHT22;54700;51.796;10.956;2023-09-19T04:03:49;15.80;83.00
67901;DHT22;54700;51.796;10.956;2023-09-19T04:06:17;15.80;82.90
67901;DHT22;54700;51.796;10.956;2023-09-19T04:08:46;15.80;83.00
67901;DHT22;54700;51.796;10.956;2023-09-19T04:11:14;15.80;82.20
67901;DHT22;54700;51.796;10.956;2023-09-19T04:13:41;15.80;82.10
67901;DHT22;54700;51.796;10.956;2023-09-19T04:16:07;15.80;82.40
67901;DHT22;54700;51.796;10.956;2023-09-19T04:18:36;15.80;81.90
67901;DHT22;54700;51.796;10.956;2023-09-19T04:21:04;15.70;82.20
67901;DHT22;54700;51.796;10.956;2023-09-19T04:23:31;15.80;81.90
67901;DHT22;54700;51.796;10.956;2023-09-19T04:25:58;15.70;82.00
67901;DHT22;54700;51.796;10.956;2023-09-19T04:28:25;15.70;82.00
67901;DHT22;54700;51.796;10.956;2023-09-19T04:30:53;15.70;82.10
67901;DHT22;54700;51.796;10.956;2023-09-19T04:33:20;15.60;81.60
67901;DHT22;54700;51.796;10.956;2023-09-19T04:35:51;15.60;80.40
67901;DHT22;54700;51.796;10.956;2023-09-19T04:38:18;15.60;80.70
67901;DHT22;54700;51.796;10.956;2023-09-19T04:40:45;15.60;80.90
67901;DHT22;54700;51.796;10.956;2023-09-19T04:43:12;15.60;80.60
67901;DHT22;54700;51.796;10.956;2023-09-19T04:45:40;15.50;80.80
67901;DHT22;54700;51.796;10.956;2023-09-19T04:48:07;15.50;81.00
67901;DHT22;54700;51.796;10.956;2023-09-19T04:50:36;15.60;80.60
67901;DHT22;54700;51.796;10.956;2023-09-19T04:53:05;15.50;81.10
67901;DHT22;54700;51.796;10.956;2023-09-19T04:55:35;15.50;81.20
67901;DHT22;54700;51.796;10.956;2023-09-19T04:58:09;15.50;81.50
67901;DHT22;54700;51.796;10.956;2023-09-19T05:00:36;15.50;81.80
67901;DHT22;54700;51.796;10.956;2023-09-19T05:03:06;15.50;82.30
67901;DHT22;54700;51.796;10.956;2023-09-19T05:05:38;15.50;82.60
67901;DHT22;54700;51.796;10.956;2023-09-19T05:08:11;15.50;83.10
67901;DHT22;54700;51.796;10.956;2023-09-19T05:10:39;15.50;83.60
67901;DHT22;54700;51.796;10.956;2023-09-19T05:13:06;15.40;83.70
67901;DHT22;54700;51.796;10.956;2023-09-19T05:15:46;15.40;83.40
67901;DHT22;54700;51.796;10.956;2023-09-19T05:18:13;15.40;83.20
67901;DHT22;54700;51.796;10.956;2023-09-19T05:20:40;15.40;83.10
67901;DHT22;54700;51.796;10.956;2023-09-19T05:23:11;15.40;82.90
67901;DHT22;54700;51.796;10.956;2023-09-19T05:25:38;15.40;82.70
67901;DHT22;54700;51.796;10.956;2023-09-19T05:28:08;15.40;82.30
67901;DHT22;54700;51.796;10.956;2023-09-19T05:30:40;15.40;81.10
67901;DHT22;54700;51.796;10.956;2023-09-19T05:33:08;15.50;80.60
67901;DHT22;54700;51.796;10.956;2023-09-19T05:35:36;15.50;80.30
67901;DHT22;54700;51.796;10.956;2023-09-19T05:38:16;15.50;79.90
67901;DHT22;54700;51.796;10.956;2023-09-19T05:40:46;15.50;79.70
67901;DHT22;54700;51.796;10.956;2023-09-19T05:43:18;15.50;80.10
67901;DHT22;54700;51.796;10.956;2023-09-19T05:45:45;15.50;79.80
67901;DHT22;54700;51.796;10.956;2023-09-19T05:48:13;15.50;79.70
67901;DHT22;54700;51.796;10.956;2023-09-19T05:50:41;15.50;80.60
67901;DHT22;54700;51.796;10.956;2023-09-19T05:53:15;15.50;80.40
67901;DHT22;54700;51.796;10.956;2023-09-19T05:55:44;15.50;79.90
67901;DHT22;54700;51.796;10.956;2023-09-19T06:00:56;15.50;79.30
67901;DHT22;54700;51.796;10.956;2023-09-19T06:03:23;15.60;78.80
67901;DHT22;54700;51.796;10.956;2023-09-19T06:05:53;15.60;79.30
67901;DHT22;54700;51.796;10.956;2023-09-19T06:08:24;15.50;79.40
67901;DHT22;54700;51.796;10.956;2023-09-19T06:10:54;15.50;79.30
67901;DHT22;54700;51.796;10.956;2023-09-19T06:13:23;15.50;79.00
67901;DHT22;54700;51.796;10.956;2023-09-19T06:15:59;15.60;79.40
67901;DHT22;54700;51.796;10.956;2023-09-19T06:18:34;15.50;79.10
67901;DHT22;54700;51.796;10.956;2023-09-19T06:21:02;15.50;78.80
67901;DHT22;54700;51.796;10.956;2023-09-19T06:23:37;15.50;78.80
67901;DHT22;54700;51.796;10.956;2023-09-19T06:26:07;15.50;79.20
67901;DHT22;54700;51.796;10.956;2023-09-19T06:28:34;15.50;79.40
67901;DHT22;54700;51.796;10.956;2023-09-19T06:31:08;15.50;79.10
67901;DHT22;54700;51.796;10.956;2023-09-19T06:33:39;15.60;79.50
67901;DHT22;54700;51.796;10.956;2023-09-19T06:36:06;15.60;79.60
67901;DHT22;54700;51.796;10.956;2023-09-19T06:41:36;15.70;79.20
67901;DHT22;54700;51.796;10.956;2023-09-19T06:44:04;15.70;78.70
67901;DHT22;54700;51.796;10.956;2023-09-19T06:46:32;15.80;78.40
67901;DHT22;54700;51.796;10.956;2023-09-19T06:49:00;15.80;78.60
67901;DHT22;54700;51.796;10.956;2023-09-19T06:51:31;15.80;78.20
67901;DHT22;54700;51.796;10.956;2023-09-19T06:54:03;15.80;78.90
67901;DHT22;54700;51.796;10.956;2023-09-19T06:56:33;15.80;79.00
67901;DHT22;54700;51.796;10.956;2023-09-19T06:59:00;15.70;78.50
67901;DHT22;54700;51.796;10.956;2023-09-19T07:01:28;15.70;79.00
67901;DHT22;54700;51.796;10.956;2023-09-19T07:03:59;15.60;79.50
67901;DHT22;54700;51.796;10.956;2023-09-19T07:06:26;15.60;79.70
67901;DHT22;54700;51.796;10.956;2023-09-19T07:08:54;15.60;79.50
67901;DHT22;54700;51.796;10.956;2023-09-19T07:11:23;15.50;80.10
67901;DHT22;54700;51.796;10.956;2023-09-19T07:13:50;15.50;80.20
67901;DHT22;54700;51.796;10.956;2023-09-19T07:16:19;15.50;80.00
67901;DHT22;54700;51.796;10.956;2023-09-19T07:18:54;15.50;80.00
67901;DHT22;54700;51.796;10.956;2023-09-19T07:21:22;15.50;79.80
67901;DHT22;54700;51.796;10.956;2023-09-19T07:23:52;15.60;79.90
67901;DHT22;54700;51.796;10.956;2023-09-19T07:26:25;15.60;78.10
67901;DHT22;54700;51.796;10.956;2023-09-19T07:28:53;15.70;76.20
67901;DHT22;54700;51.796;10.956;2023-09-19T07:31:21;15.60;75.70
67901;DHT22;54700;51.796;10.956;2023-09-19T07:33:50;15.60;75.30
67901;DHT22;54700;51.796;10.956;2023-09-19T07:36:27;15.60;74.30
67901;DHT22;54700;51.796;10.956;2023-09-19T07:38:56;15.50;73.30
67901;DHT22;54700;51.796;10.956;2023-09-19T07:42:01;15.50;74.30
67901;DHT22;54700;51.796;10.956;2023-09-19T07:44:53;15.50;75.10
67901;DHT22;54700;51.796;10.956;2023-09-19T07:50:54;15.60;76.10
67901;DHT22;54700;51.796;10.956;2023-09-19T07:54:00;15.60;73.80
67901;DHT22;54700;51.796;10.956;2023-09-19T07:56:35;15.60;73.80
67901;DHT22;54700;51.796;10.956;2023-09-19T07:59:17;15.70;73.50
67901;DHT22;54700;51.796;10.956;2023-09-19T08:04:55;15.80;74.30
67901;DHT22;54700;51.796;10.956;2023-09-19T08:07:36;15.90;71.80
67901;DHT22;54700;51.796;10.956;2023-09-19T08:10:09;16.00;70.90
67901;DHT22;54700;51.796;10.956;2023-09-19T08:12:41;16.10;70.50
67901;DHT22;54700;51.796;10.956;2023-09-19T08:15:32;16.10;68.70
67901;DHT22;54700;51.796;10.956;2023-09-19T08:18:20;16.20;68.70
67901;DHT22;54700;51.796;10.956;2023-09-19T08:20:51;16.30;68.00
67901;DHT22;54700;51.796;10.956;2023-09-19T08:23:20;16.30;68.10
67901;DHT22;54700;51.796;10.956;2023-09-19T08:26:01;16.40;68.60
67901;DHT22;54700;51.796;10.956;2023-09-19T08:28:38;16.40;68.00
67901;DHT22;54700;51.796;10.956;2023-09-19T08:31:10;16.50;68.70
67901;DHT22;54700;51.796;10.956;2023-09-19T08:33:37;16.50;67.10
67901;DHT22;54700;51.796;10.956;2023-09-19T08:36:08;16.50;67.30
67901;DHT22;54700;51.796;10.956;2023-09-19T08:38:35;16.60;67.80
67901;DHT22;54700;51.796;10.956;2023-09-19T08:41:05;16.70;67.40
67901;DHT22;54700;51.796;10.956;2023-09-19T08:43:32;16.80;67.90
67901;DHT22;54700;51.796;10.956;2023-09-19T08:46:06;16.80;66.40
67901;DHT22;54700;51.796;10.956;2023-09-19T08:48:45;16.80;66.60
67901;DHT22;54700;51.796;10.956;2023-09-19T08:51:17;16.80;66.20
67901;DHT22;54700;51.796;10.956;2023-09-19T08:53:51;16.70;67.00
67901;DHT22;54700;51.796;10.956;2023-09-19T08:56:25;16.80;66.90
67901;DHT22;54700;51.796;10.956;2023-09-19T08:58:57;16.70;65.90
67901;DHT22;54700;51.796;10.956;2023-09-19T09:01:28;16.70;66.40
67901;DHT22;54700;51.796;10.956;2023-09-19T09:03:57;16.60;65.60
67901;DHT22;54700;51.796;10.956;2023-09-19T09:06:28;16.50;65.10
67901;DHT22;54700;51.796;10.956;2023-09-19T09:08:58;16.60;65.90
67901;DHT22;54700;51.796;10.956;2023-09-19T09:11:27;16.60;65.50
67901;DHT22;54700;51.796;10.956;2023-09-19T09:13:54;16.60;65.00
67901;DHT22;54700;51.796;10.956;2023-09-19T09:16:22;16.50;64.80
67901;DHT22;54700;51.796;10.956;2023-09-19T09:18:52;16.50;64.80
67901;DHT22;54700;51.796;10.956;2023-09-19T09:21:23;16.60;64.90
67901;DHT22;54700;51.796;10.956;2023-09-19T09:23:55;16.60;64.90
67901;DHT22;54700;51.796;10.956;2023-09-19T09:29:10;16.70;65.50
67901;DHT22;54700;51.796;10.956;2023-09-19T09:31:38;16.70;64.50
67901;DHT22;54700;51.796;10.956;2023-09-19T09:34:10;16.80;65.00
67901;DHT22;54700;51.796;10.956;2023-09-19T09:36:48;16.90;64.30
67901;DHT22;54700;51.796;10.956;2023-09-19T09:39:34;17.00;64.30
67901;DHT22;54700;51.796;10.956;2023-09-19T09:42:45;17.10;64.40
67901;DHT22;54700;51.796;10.956;2023-09-19T09:45:26;17.20;63.70
67901;DHT22;54700;51.796;10.956;2023-09-19T09:48:09;17.30;63.20
67901;DHT22;54700;51.796;10.956;2023-09-19T09:51:08;17.40;63.40
67901;DHT22;54700;51.796;10.956;2023-09-19T09:53:43;17.40;61.30
67901;DHT22;54700;51.796;10.956;2023-09-19T09:56:21;17.50;62.40
67901;DHT22;54700;51.796;10.956;2023-09-19T09:59:01;17.50;63.60
67901;DHT22;54700;51.796;10.956;2023-09-19T10:01:59;17.60;61.80
67901;DHT22;54700;51.796;10.956;2023-09-19T10:05:17;17.70;60.80
67901;DHT22;54700;51.796;10.956;2023-09-19T10:08:19;17.80;62.70
67901;DHT22;54700;51.796;10.956;2023-09-19T10:10:47;17.90;61.70
67901;DHT22;54700;51.796;10.956;2023-09-19T10:13:29;18.00;61.10
67901;DHT22;54700;51.796;10.956;2023-09-19T10:18:51;18.10;60.40
67901;DHT22;54700;51.796;10.956;2023-09-19T10:21:25;18.20;61.10
67901;DHT22;54700;51.796;10.956;2023-09-19T10:23:57;18.00;60.30
67901;DHT22;54700;51.796;10.956;2023-09-19T10:26:34;18.00;61.30
67901;DHT22;54700;51.796;10.956;2023-09-19T10:29:03;18.00;61.70
67901;DHT22;54700;51.796;10.956;2023-09-19T10:31:36;17.90;61.30
67901;DHT22;54700;51.796;10.956;2023-09-19T10:34:12;18.00;61.10
67901;DHT22;54700;51.796;10.956;2023-09-19T10:36:44;18.10;61.40
67901;DHT22;54700;51.796;10.956;2023-09-19T10:39:14;18.10;59.60
67901;DHT22;54700;51.796;10.956;2023-09-19T10:41:47;18.10;61.00
67901;DHT22;54700;51.796;10.956;2023-09-19T10:44:27;18.20;61.20
67901;DHT22;54700;51.796;10.956;2023-09-19T10:46:59;18.20;61.10
67901;DHT22;54700;51.796;10.956;2023-09-19T10:49:28;18.30;60.70
67901;DHT22;54700;51.796;10.956;2023-09-19T10:51:59;18.40;61.50
67901;DHT22;54700;51.796;10.956;2023-09-19T10:54:35;18.20;59.20
67901;DHT22;54700;51.796;10.956;2023-09-19T10:57:04;18.20;60.00
67901;DHT22;54700;51.796;10.956;2023-09-19T10:59:38;18.20;60.80
67901;DHT22;54700;51.796;10.956;2023-09-19T11:06:02;18.40;59.60
67901;DHT22;54700;51.796;10.956;2023-09-19T11:11:46;18.40;61.20
67901;DHT22;54700;51.796;10.956;2023-09-19T11:14:29;18.50;60.50
67901;DHT22;54700;51.796;10.956;2023-09-19T11:20:19;18.70;59.50
67901;DHT22;54700;51.796;10.956;2023-09-19T11:23:19;18.80;59.10
67901;DHT22;54700;51.796;10.956;2023-09-19T11:25:56;18.80;57.60
67901;DHT22;54700;51.796;10.956;2023-09-19T11:28:31;18.90;56.80
67901;DHT22;54700;51.796;10.956;2023-09-19T11:34:40;18.90;55.30
67901;DHT22;54700;51.796;10.956;2023-09-19T11:40:44;18.90;54.80
67901;DHT22;54700;51.796;10.956;2023-09-19T11:43:34;19.00;56.20
67901;DHT22;54700;51.796;10.956;2023-09-19T11:46:06;19.00;52.20
67901;DHT22;54700;51.796;10.956;2023-09-19T11:48:42;18.90;52.10
67901;DHT22;54700;51.796;10.956;2023-09-19T11:51:28;18.80;52.70
67901;DHT22;54700;51.796;10.956;2023-09-19T11:54:41;18.90;52.70
67901;DHT22;54700;51.796;10.956;2023-09-19T11:57:20;18.90;53.20
67901;DHT22;54700;51.796;10.956;2023-09-19T11:59:49;19.00;53.00
67901;DHT22;54700;51.796;10.956;2023-09-19T12:02:27;19.00;53.10
67901;DHT22;54700;51.796;10.956;2023-09-19T12:05:06;19.00;49.40
67901;DHT22;54700;51.796;10.956;2023-09-19T12:07:42;19.00;50.10
67901;DHT22;54700;51.796;10.956;2023-09-19T12:10:14;18.90;50.20
67901;DHT22;54700;51.796;10.956;2023-09-19T12:12:46;18.90;51.40
67901;DHT22;54700;51.796;10.956;2023-09-19T12:15:25;19.00;50.90
67901;DHT22;54700;51.796;10.956;2023-09-19T12:17:59;19.00;51.20
67901;DHT22;54700;51.796;10.956;2023-09-19T12:20:41;19.10;51.50
67901;DHT22;54700;51.796;10.956;2023-09-19T12:23:14;19.10;51.50
67901;DHT22;54700;51.796;10.956;2023-09-19T12:25:42;19.10;50.20
67901;DHT22;54700;51.796;10.956;2023-09-19T12:28:12;19.10;50.90
67901;DHT22;54700;51.796;10.956;2023-09-19T12:30:40;19.10;50.80
67901;DHT22;54700;51.796;10.956;2023-09-19T12:33:16;19.20;50.60
67901;DHT22;54700;51.796;10.956;2023-09-19T12:35:46;19.20;50.60
67901;DHT22;54700;51.796;10.956;2023-09-19T12:38:22;19.10;49.30
67901;DHT22;54700;51.796;10.956;2023-09-19T12:40:50;19.10;49.20
67901;DHT22;54700;51.796;10.956;2023-09-19T12:43:21;19.10;50.40
67901;DHT22;54700;51.796;10.956;2023-09-19T12:45:53;19.20;50.60
67901;DHT22;54700;51.796;10.956;2023-09-19T12:48:22;19.30;48.70
67901;DHT22;54700;51.796;10.956;2023-09-19T12:51:01;19.30;48.80
67901;DHT22;54700;51.796;10.956;2023-09-19T12:53:32;19.40;49.50
67901;DHT22;54700;51.796;10.956;2023-09-19T12:56:05;19.40;48.70
67901;DHT22;54700;51.796;10.956;2023-09-19T12:58:35;19.50;48.90
67901;DHT22;54700;51.796;10.956;2023-09-19T13:01:23;19.50;48.10
67901;DHT22;54700;51.796;10.956;2023-09-19T13:06:43;19.60;48.50
67901;DHT22;54700;51.796;10.956;2023-09-19T13:09:12;19.60;48.40
67901;DHT22;54700;51.796;10.956;2023-09-19T13:11:41;19.60;48.50
67901;DHT22;54700;51.796;10.956;2023-09-19T13:14:17;19.60;48.80
67901;DHT22;54700;51.796;10.956;2023-09-19T13:16:58;19.50;48.70
67901;DHT22;54700;51.796;10.956;2023-09-19T13:19:38;19.50;47.70
67901;DHT22;54700;51.796;10.956;2023-09-19T13:25:15;19.40;47.90
67901;DHT22;54700;51.796;10.956;2023-09-19T13:27:59;19.50;48.50
67901;DHT22;54700;51.796;10.956;2023-09-19T13:30:52;19.50;48.50
67901;DHT22;54700;51.796;10.956;2023-09-19T13:33:21;19.50;47.80
67901;DHT22;54700;51.796;10.956;2023-09-19T13:35:48;19.60;49.30
67901;DHT22;54700;51.796;10.956;2023-09-19T13:38:15;19.80;49.70
67901;DHT22;54700;51.796;10.956;2023-09-19T13:40:46;19.80;47.90
67901;DHT22;54700;51.796;10.956;2023-09-19T13:43:13;19.80;46.90
67901;DHT22;54700;51.796;10.956;2023-09-19T13:45:40;19.80;47.20
67901;DHT22;54700;51.796;10.956;2023-09-19T13:48:08;19.70;47.10
67901;DHT22;54700;51.796;10.956;2023-09-19T13:50:40;19.60;46.60
67901;DHT22;54700;51.796;10.956;2023-09-19T13:53:08;19.50;47.50
67901;DHT22;54700;51.796;10.956;2023-09-19T13:55:35;19.50;47.60
67901;DHT22;54700;51.796;10.956;2023-09-19T13:58:05;19.40;48.30
67901;DHT22;54700;51.796;10.956;2023-09-19T14:00:33;19.50;48.90
67901;DHT22;54700;51.796;10.956;2023-09-19T14:03:00;19.60;48.70
67901;DHT22;54700;51.796;10.956;2023-09-19T14:05:30;19.60;49.60
67901;DHT22;54700;51.796;10.956;2023-09-19T14:07:59;19.60;50.00
67901;DHT22;54700;51.796;10.956;2023-09-19T14:10:29;19.60;49.40
67901;DHT22;54700;51.796;10.956;2023-09-19T14:12:56;19.60;49.40
67901;DHT22;54700;51.796;10.956;2023-09-19T14:15:24;19.60;49.30
67901;DHT22;54700;51.796;10.956;2023-09-19T14:17:55;19.60;50.30
67901;DHT22;54700;51.796;10.956;2023-09-19T14:20:23;19.60;49.80
67901;DHT22;54700;51.796;10.956;2023-09-19T14:22:52;19.60;50.10
67901;DHT22;54700;51.796;10.956;2023-09-19T14:25:20;19.60;49.60
67901;DHT22;54700;51.796;10.956;2023-09-19T14:27:47;19.50;49.80
67901;DHT22;54700;51.796;10.956;2023-09-19T14:30:15;19.50;50.20
67901;DHT22;54700;51.796;10.956;2023-09-19T14:32:42;19.40;50.00
67901;DHT22;54700;51.796;10.956;2023-09-19T14:35:12;19.30;50.50
67901;DHT22;54700;51.796;10.956;2023-09-19T14:37:40;19.40;50.60
67901;DHT22;54700;51.796;10.956;2023-09-19T14:40:07;19.40;51.60
67901;DHT22;54700;51.796;10.956;2023-09-19T14:42:38;19.40;50.70
67901;DHT22;54700;51.796;10.956;2023-09-19T14:45:06;19.50;50.70
67901;DHT22;54700;51.796;10.956;2023-09-19T14:47:34;19.50;51.10
67901;DHT22;54700;51.796;10.956;2023-09-19T14:50:04;19.50;50.60
67901;DHT22;54700;51.796;10.956;2023-09-19T14:52:32;19.50;50.30
67901;DHT22;54700;51.796;10.956;2023-09-19T14:55:07;19.50;50.50
67901;DHT22;54700;51.796;10.956;2023-09-19T14:57:41;19.40;50.80
67901;DHT22;54700;51.796;10.956;2023-09-19T15:00:11;19.40;50.70
67901;DHT22;54700;51.796;10.956;2023-09-19T15:02:43;19.30;50.70
67901;DHT22;54700;51.796;10.956;2023-09-19T15:05:18;19.30;50.70
67901;DHT22;54700;51.796;10.956;2023-09-19T15:07:48;19.20;52.10
67901;DHT22;54700;51.796;10.956;2023-09-19T15:10:17;19.20;52.00
67901;DHT22;54700;51.796;10.956;2023-09-19T15:12:46;19.20;51.00
67901;DHT22;54700;51.796;10.956;2023-09-19T15:15:13;19.20;51.90
67901;DHT22;54700;51.796;10.956;2023-09-19T15:17:41;19.10;51.20
67901;DHT22;54700;51.796;10.956;2023-09-19T15:20:11;19.10;52.60
67901;DHT22;54700;51.796;10.956;2023-09-19T15:22:40;19.00;51.60
67901;DHT22;54700;51.796;10.956;2023-09-19T15:25:08;19.00;52.10
67901;DHT22;54700;51.796;10.956;2023-09-19T15:27:35;18.90;52.20
67901;DHT22;54700;51.796;10.956;2023-09-19T15:30:04;18.90;52.70
67901;DHT22;54700;51.796;10.956;2023-09-19T15:32:32;18.90;52.70
67901;DHT22;54700;51.796;10.956;2023-09-19T15:34:59;18.90;53.20
67901;DHT22;54700;51.796;10.956;2023-09-19T15:37:26;18.90;53.50
67901;DHT22;54700;51.796;10.956;2023-09-19T15:39:53;18.80;53.20
67901;DHT22;54700;51.796;10.956;2023-09-19T15:42:19;18.80;53.70
67901;DHT22;54700;51.796;10.956;2023-09-19T15:44:46;18.70;53.80
67901;DHT22;54700;51.796;10.956;2023-09-19T15:47:16;18.70;54.60
67901;DHT22;54700;51.796;10.956;2023-09-19T15:49:45;18.60;54.70
67901;DHT22;54700;51.796;10.956;2023-09-19T15:52:11;18.60;55.20
67901;DHT22;54700;51.796;10.956;2023-09-19T15:54:38;18.60;55.90
67901;DHT22;54700;51.796;10.956;2023-09-19T15:57:09;18.60;55.60
67901;DHT22;54700;51.796;10.956;2023-09-19T15:59:38;18.60;56.20
67901;DHT22;54700;51.796;10.956;2023-09-19T16:02:05;18.50;56.00
67901;DHT22;54700;51.796;10.956;2023-09-19T16:04:33;18.50;55.90
67901;DHT22;54700;51.796;10.956;2023-09-19T16:07:03;18.50;55.50
67901;DHT22;54700;51.796;10.956;2023-09-19T16:09:30;18.50;55.90
67901;DHT22;54700;51.796;10.956;2023-09-19T16:11:57;18.40;55.90
67901;DHT22;54700;51.796;10.956;2023-09-19T16:14:24;18.30;56.00
67901;DHT22;54700;51.796;10.956;2023-09-19T16:16:52;18.30;56.20
67901;DHT22;54700;51.796;10.956;2023-09-19T16:19:19;18.30;56.50
67901;DHT22;54700;51.796;10.956;2023-09-19T16:21:48;18.20;56.80
67901;DHT22;54700;51.796;10.956;2023-09-19T16:24:14;18.20;57.30